createdAt,value
2022-11-02T00:00:33.871Z,28.97
2022-11-02T00:03:00.992Z,33.70
2022-11-02T00:05:28.201Z,29.37
2022-11-02T00:07:56.082Z,32.27
2022-11-02T00:10:24.374Z,32.23
2022-11-02T00:12:53.464Z,34.10
2022-11-02T00:15:27.098Z,32.10
2022-11-02T00:17:59.809Z,33.63
2022-11-02T00:20:27.816Z,35.23
2022-11-02T00:22:58.591Z,35.20
2022-11-02T00:25:27.232Z,34.10
2022-11-02T00:27:54.325Z,35.27
2022-11-02T00:30:21.581Z,34.77
2022-11-02T00:32:50.406Z,33.73
2022-11-02T00:35:19.926Z,33.10
2022-11-02T00:37:48.908Z,32.13
2022-11-02T00:40:19.214Z,30.10
2022-11-02T00:42:49.350Z,28.00
2022-11-02T00:45:16.367Z,27.67
2022-11-02T00:47:43.670Z,26.57
2022-11-02T00:50:10.627Z,26.03
2022-11-02T00:52:40.469Z,25.60
2022-11-02T00:55:09.148Z,25.73
2022-11-02T00:57:38.379Z,24.83
2022-11-02T01:00:06.924Z,24.37
2022-11-02T01:02:34.606Z,22.70
2022-11-02T01:05:01.813Z,23.07
2022-11-02T01:07:29.305Z,25.27
2022-11-02T01:09:56.440Z,26.80
2022-11-02T01:12:23.422Z,24.13
2022-11-02T01:14:50.446Z,23.50
2022-11-02T01:17:18.778Z,26.30
2022-11-02T01:19:45.845Z,24.37
2022-11-02T01:22:12.894Z,26.50
2022-11-02T01:24:40.064Z,26.90
2022-11-02T01:27:07.151Z,25.93
2022-11-02T01:29:34.157Z,25.97
2022-11-02T01:32:01.195Z,24.57
2022-11-02T01:34:28.160Z,23.77
2022-11-02T01:36:55.407Z,25.67
2022-11-02T01:39:49.503Z,27.67
2022-11-02T01:42:20.376Z,27.53
2022-11-02T01:44:47.582Z,26.47
2022-11-02T01:47:38.094Z,22.87
2022-11-02T01:50:28.171Z,24.27
2022-11-02T01:52:55.279Z,23.47
2022-11-02T01:55:29.465Z,25.43
2022-11-02T01:58:00.888Z,24.43
2022-11-02T02:00:28.154Z,23.53
2022-11-02T02:03:11.961Z,26.33
2022-11-02T02:05:49.554Z,32.70
2022-11-02T02:08:20.051Z,34.40
2022-11-02T02:10:47.142Z,25.67
2022-11-02T02:13:19.032Z,23.87
2022-11-02T02:16:28.780Z,21.93
2022-11-02T02:19:05.468Z,23.83
2022-11-02T02:21:58.765Z,51.33
2022-11-02T02:24:52.436Z,31.07
2022-11-02T02:27:59.137Z,24.10
2022-11-02T02:30:29.061Z,28.00
2022-11-02T02:33:01.350Z,38.23
2022-11-02T02:35:35.702Z,38.10
2022-11-02T02:38:06.966Z,42.77
2022-11-02T02:41:16.831Z,46.27
2022-11-02T02:43:49.328Z,35.97
2022-11-02T02:46:46.637Z,31.20
2022-11-02T02:49:22.827Z,25.33
2022-11-02T02:51:50.755Z,22.50
2022-11-02T02:54:25.324Z,26.40
2022-11-02T02:56:56.326Z,27.38
2022-11-02T02:59:45.306Z,24.73
2022-11-02T03:02:25.475Z,22.53
2022-11-02T03:04:52.542Z,22.87
2022-11-02T03:07:26.358Z,22.50
2022-11-02T03:10:21.173Z,21.70
2022-11-02T03:13:10.633Z,20.60
2022-11-02T03:15:42.198Z,20.97
2022-11-02T03:18:36.162Z,20.23
2022-11-02T03:21:42.861Z,18.60
2022-11-02T03:24:36.275Z,16.07
2022-11-02T03:27:15.006Z,17.13
2022-11-02T03:30:24.682Z,20.43
2022-11-02T03:33:21.339Z,20.23
2022-11-02T03:36:03.864Z,24.70
2022-11-02T03:38:38.604Z,24.63
2022-11-02T03:41:07.543Z,26.80
2022-11-02T03:43:36.665Z,27.30
2022-11-02T03:46:06.459Z,31.90
2022-11-02T03:48:40.184Z,32.43
2022-11-02T03:51:11.976Z,34.87
2022-11-02T03:54:19.142Z,43.50
2022-11-02T03:56:51.464Z,36.60
2022-11-02T03:59:18.712Z,38.87
2022-11-02T04:01:48.586Z,46.87
2022-11-02T04:04:16.107Z,57.60
2022-11-02T04:06:48.497Z,49.87
2022-11-02T04:09:15.836Z,45.90
2022-11-02T04:12:03.334Z,41.87
2022-11-02T04:14:48.138Z,43.30
2022-11-02T04:17:35.400Z,37.65
2022-11-02T04:20:02.478Z,35.03
2022-11-02T04:22:49.291Z,31.97
2022-11-02T04:25:19.452Z,32.17
2022-11-02T04:27:48.894Z,41.03
2022-11-02T04:30:18.122Z,46.33
2022-11-02T04:33:06.770Z,25.30
2022-11-02T04:35:35.240Z,22.97
2022-11-02T04:38:22.099Z,20.53
2022-11-02T04:40:51.162Z,18.77
2022-11-02T04:43:18.130Z,42.40
2022-11-02T04:45:45.133Z,23.23
2022-11-02T04:48:14.029Z,20.57
2022-11-02T04:50:43.744Z,30.97
2022-11-02T04:53:13.871Z,33.53
2022-11-02T04:55:40.816Z,21.80
2022-11-02T04:58:08.502Z,32.53
2022-11-02T05:00:35.591Z,24.83
2022-11-02T05:03:03.885Z,20.97
2022-11-02T05:05:31.740Z,20.47
2022-11-02T05:07:58.993Z,29.00
2022-11-02T05:10:26.061Z,33.23
2022-11-02T05:13:00.759Z,27.33
2022-11-02T05:15:28.411Z,29.10
2022-11-02T05:17:55.596Z,27.83
2022-11-02T05:20:22.696Z,62.63
2022-11-02T05:22:49.758Z,68.20
2022-11-02T05:25:16.693Z,54.37
2022-11-02T05:27:43.653Z,43.50
2022-11-02T05:30:11.517Z,32.37
2022-11-02T05:32:39.609Z,30.60
2022-11-02T05:35:10.385Z,29.87
2022-11-02T05:37:40.531Z,26.17
2022-11-02T05:40:11.532Z,27.57
2022-11-02T05:42:38.601Z,27.07
2022-11-02T05:45:06.257Z,29.23
2022-11-02T05:47:34.397Z,27.50
2022-11-02T05:53:26.226Z,32.33
2022-11-02T05:55:57.719Z,31.27
2022-11-02T05:58:25.049Z,32.83
2022-11-02T06:00:52.049Z,31.17
2022-11-02T06:03:19.040Z,29.97
2022-11-02T06:05:46.318Z,38.03
2022-11-02T06:08:13.312Z,33.13
2022-11-02T06:10:43.301Z,36.70
2022-11-02T06:13:10.505Z,39.63
2022-11-02T06:15:37.491Z,38.93
2022-11-02T06:18:06.322Z,37.00
2022-11-02T06:20:33.321Z,42.23
2022-11-02T06:23:00.496Z,40.50
2022-11-02T06:25:27.672Z,41.10
2022-11-02T06:27:57.323Z,43.87
2022-11-02T06:30:25.349Z,37.70
2022-11-02T06:32:53.982Z,43.00
2022-11-02T06:35:22.955Z,37.73
2022-11-02T06:37:49.969Z,40.10
2022-11-02T06:40:18.424Z,33.53
2022-11-02T06:43:03.259Z,39.50
2022-11-02T06:45:34.413Z,44.80
2022-11-02T06:48:01.877Z,41.40
2022-11-02T06:50:29.810Z,43.80
2022-11-02T06:52:56.837Z,42.23
2022-11-02T06:55:24.964Z,42.33
2022-11-02T06:57:52.217Z,45.63
2022-11-02T07:00:22.700Z,46.33
2022-11-02T07:06:11.117Z,35.97
2022-11-02T07:08:44.963Z,38.00
2022-11-02T07:11:15.764Z,39.93
2022-11-02T07:13:44.145Z,41.60
2022-11-02T07:16:11.471Z,41.60
2022-11-02T07:18:41.916Z,38.00
2022-11-02T07:21:11.447Z,39.57
2022-11-02T07:23:38.868Z,32.90
2022-11-02T07:26:06.035Z,33.77
2022-11-02T07:28:33.066Z,32.37
2022-11-02T07:31:03.112Z,29.67
2022-11-02T07:33:33.571Z,28.20
2022-11-02T07:36:03.846Z,28.57
2022-11-02T07:38:30.912Z,27.83
2022-11-02T07:40:58.162Z,31.03
2022-11-02T07:43:25.264Z,32.03
2022-11-02T07:45:52.588Z,34.37
2022-11-02T07:48:19.615Z,30.23
2022-11-02T07:50:46.702Z,29.23
2022-11-02T07:53:13.849Z,29.47
2022-11-02T07:55:40.946Z,30.23
2022-11-02T07:58:13.803Z,32.47
2022-11-02T08:00:41.500Z,29.87
2022-11-02T08:03:11.018Z,31.07
2022-11-02T08:05:40.837Z,28.67
2022-11-02T08:08:11.883Z,28.57
2022-11-02T08:10:40.586Z,26.40
2022-11-02T08:13:14.786Z,25.47
2022-11-02T08:15:42.066Z,27.10
2022-11-02T08:18:15.689Z,32.87
2022-11-02T08:20:43.226Z,28.87
2022-11-02T08:23:11.277Z,29.70
2022-11-02T08:25:39.466Z,28.90
2022-11-02T08:28:08.275Z,30.37
2022-11-02T08:30:35.452Z,27.07
2022-11-02T08:33:04.866Z,25.57
2022-11-02T08:35:37.686Z,26.30
2022-11-02T08:38:05.755Z,27.00
2022-11-02T08:40:34.796Z,30.27
2022-11-02T08:43:04.642Z,31.43
2022-11-02T08:46:00.525Z,27.37
2022-11-02T08:48:21.540Z,28.77
2022-11-02T08:50:49.608Z,32.00
2022-11-02T08:53:16.697Z,26.30
2022-11-02T08:55:43.891Z,27.50
2022-11-02T08:58:11.761Z,25.83
2022-11-02T09:00:38.924Z,25.80
2022-11-02T09:03:08.472Z,29.83
2022-11-02T09:05:39.195Z,23.73
2022-11-02T09:08:09.652Z,26.27
2022-11-02T09:10:37.365Z,24.53
2022-11-02T09:13:07.138Z,26.13
2022-11-02T09:15:36.777Z,27.63
2022-11-02T09:18:05.175Z,29.67
2022-11-02T09:20:34.403Z,23.83
2022-11-02T09:23:01.924Z,26.10
2022-11-02T09:25:32.606Z,24.87
2022-11-02T09:27:59.767Z,26.53
2022-11-02T09:30:31.345Z,24.17
2022-11-02T09:33:00.565Z,26.13
2022-11-02T09:35:33.429Z,26.20
2022-11-02T09:38:02.952Z,22.63
2022-11-02T09:41:01.933Z,20.67
2022-11-02T09:44:12.167Z,20.20
2022-11-02T09:46:46.086Z,21.00
2022-11-02T09:49:18.935Z,18.53
2022-11-02T09:51:56.839Z,16.47
2022-11-02T09:54:47.630Z,16.60
2022-11-02T09:57:21.108Z,18.43
2022-11-02T09:59:49.248Z,15.90
2022-11-02T10:02:46.465Z,13.43
2022-11-02T10:05:53.314Z,15.27
2022-11-02T10:08:45.313Z,12.40
2022-11-02T10:11:52.272Z,13.03
2022-11-02T10:14:30.298Z,13.60
2022-11-02T10:17:25.408Z,13.00
2022-11-02T10:20:07.519Z,11.75
2022-11-02T10:22:43.127Z,12.47
2022-11-02T10:25:20.044Z,13.03
2022-11-02T10:27:51.623Z,12.67
2022-11-02T10:30:20.609Z,11.77
2022-11-02T10:32:57.796Z,9.90
2022-11-02T10:36:18.160Z,8.20
2022-11-02T10:39:09.221Z,7.73
2022-11-02T10:42:18.551Z,9.63
2022-11-02T10:45:25.312Z,10.10
2022-11-02T10:48:31.985Z,8.20
2022-11-02T10:51:16.558Z,8.80
2022-11-02T10:53:46.596Z,9.60
2022-11-02T10:56:39.458Z,8.70
2022-11-02T10:59:27.067Z,8.27
2022-11-02T11:02:14.592Z,8.60
2022-11-02T11:04:43.053Z,8.73
2022-11-02T11:07:28.085Z,7.67
2022-11-02T11:09:58.868Z,7.78
2022-11-02T11:12:41.171Z,8.17
2022-11-02T11:21:01.414Z,9.40
2022-11-02T11:23:31.826Z,9.03
2022-11-02T11:26:05.150Z,9.30
2022-11-02T11:28:54.726Z,10.37
2022-11-02T11:31:22.408Z,9.10
2022-11-02T11:34:12.234Z,11.17
2022-11-02T11:36:39.482Z,11.23
2022-11-02T11:39:27.737Z,12.90
2022-11-02T11:41:58.230Z,13.20
2022-11-02T11:44:27.522Z,13.80
2022-11-02T11:47:08.896Z,13.33
2022-11-02T11:55:51.749Z,13.93
2022-11-02T11:58:29.424Z,13.40
2022-11-02T12:01:20.212Z,12.43
2022-11-02T12:04:15.795Z,12.00
2022-11-02T12:07:28.180Z,11.65
2022-11-02T12:17:46.392Z,12.83
2022-11-02T12:20:55.085Z,12.70
2022-11-02T12:24:10.977Z,12.60
2022-11-02T12:34:24.156Z,12.50
2022-11-02T12:37:35.830Z,12.13
2022-11-02T12:40:46.178Z,13.70
2022-11-02T12:43:39.049Z,12.30
2022-11-02T12:46:38.011Z,12.70
2022-11-02T12:49:55.157Z,13.23
2022-11-02T12:53:30.941Z,12.20
2022-11-02T12:58:48.263Z,10.77
2022-11-02T13:01:36.253Z,11.77
2022-11-02T13:04:47.282Z,11.60
2022-11-02T13:07:37.046Z,11.97
2022-11-02T13:10:28.329Z,11.10
2022-11-02T13:12:59.897Z,10.63
2022-11-02T13:15:30.562Z,9.30
2022-11-02T13:18:01.898Z,12.37
2022-11-02T13:20:36.180Z,10.67
2022-11-02T13:23:48.235Z,10.47
2022-11-02T13:26:32.894Z,10.67
2022-11-02T13:29:39.649Z,9.63
2022-11-02T13:32:18.258Z,9.93
2022-11-02T13:34:52.138Z,10.83
2022-11-02T13:40:43.421Z,10.83
2022-11-02T13:43:46.481Z,10.13
2022-11-02T13:46:58.689Z,10.27
2022-11-02T13:49:31.353Z,10.13
2022-11-02T13:52:14.023Z,11.57
2022-11-02T13:54:59.676Z,10.50
2022-11-02T13:58:03.467Z,10.80
2022-11-02T14:00:47.846Z,10.20
2022-11-02T14:03:25.130Z,10.43
2022-11-02T14:05:58.600Z,9.30
2022-11-02T14:09:02.969Z,10.20
2022-11-02T14:11:50.506Z,10.30
2022-11-02T14:14:22.037Z,9.47
2022-11-02T14:17:13.696Z,9.17
2022-11-02T14:19:54.230Z,11.00
2022-11-02T14:22:22.184Z,9.23
2022-11-02T14:25:14.716Z,10.57
2022-11-02T14:27:42.004Z,9.57
2022-11-02T14:30:45.261Z,9.50
2022-11-02T14:33:45.613Z,8.83
2022-11-02T14:36:42.169Z,10.23
2022-11-02T14:39:43.208Z,9.80
2022-11-02T14:42:26.232Z,10.20
2022-11-02T14:45:32.927Z,9.47
2022-11-02T14:48:03.566Z,10.73
2022-11-02T14:50:31.210Z,10.20
2022-11-02T14:53:09.020Z,10.43
2022-11-02T14:55:38.761Z,10.47
2022-11-02T14:58:16.719Z,10.70
2022-11-02T15:01:04.591Z,10.47
2022-11-02T15:03:37.085Z,11.03
2022-11-02T15:06:25.643Z,11.20
2022-11-02T15:09:15.699Z,10.63
2022-11-02T15:12:21.332Z,11.40
2022-11-02T15:14:55.753Z,10.02
2022-11-02T15:18:02.494Z,11.38
2022-11-02T15:20:33.025Z,11.20
2022-11-02T15:23:31.277Z,11.87
2022-11-02T15:26:00.145Z,11.57
2022-11-02T15:28:32.513Z,11.93
2022-11-02T15:31:05.144Z,12.60
2022-11-02T15:33:38.060Z,13.07
2022-11-02T15:36:10.216Z,13.30
2022-11-02T15:38:40.246Z,15.07
2022-11-02T15:41:47.481Z,13.77
2022-11-02T15:44:50.201Z,12.47
2022-11-02T15:47:52.251Z,11.43
2022-11-02T15:50:50.652Z,11.40
2022-11-02T15:53:57.375Z,10.57
2022-11-02T15:57:04.776Z,11.60
2022-11-02T16:00:16.530Z,11.43
2022-11-02T16:02:48.850Z,12.83
2022-11-02T16:05:27.926Z,13.83
2022-11-02T16:08:10.720Z,11.60
2022-11-02T16:10:38.251Z,12.00
2022-11-02T16:13:20.867Z,11.90
2022-11-02T16:15:49.124Z,11.57
2022-11-02T16:18:37.454Z,15.33
2022-11-02T16:21:06.940Z,13.87
2022-11-02T16:23:37.515Z,12.97
2022-11-02T16:26:09.545Z,11.93
2022-11-02T16:28:39.054Z,11.83
2022-11-02T16:31:34.636Z,10.67
2022-11-02T16:34:08.080Z,10.50
2022-11-02T16:36:37.766Z,8.53
2022-11-02T16:39:36.563Z,10.37
2022-11-02T16:42:17.199Z,11.27
2022-11-02T16:45:04.846Z,11.27
2022-11-02T16:47:39.706Z,10.10
2022-11-02T16:50:24.167Z,9.10
2022-11-02T16:53:02.696Z,9.80
2022-11-02T16:56:04.371Z,9.87
2022-11-02T16:58:31.432Z,8.67
2022-11-02T17:01:21.196Z,9.60
2022-11-02T17:03:49.040Z,10.80
2022-11-02T17:06:17.328Z,13.00
2022-11-02T17:08:50.119Z,15.00
2022-11-02T17:11:17.978Z,12.53
2022-11-02T17:13:52.829Z,11.33
2022-11-02T17:16:20.317Z,12.27
2022-11-02T17:19:46.978Z,12.33
2022-11-02T17:22:25.521Z,11.60
2022-11-02T17:25:23.348Z,10.10
2022-11-02T17:27:52.420Z,11.40
2022-11-02T17:30:59.136Z,11.37
2022-11-02T17:33:29.494Z,10.40
2022-11-02T17:36:04.009Z,10.67
2022-11-02T17:38:31.392Z,11.55
2022-11-02T17:41:00.150Z,10.57
2022-11-02T17:43:27.658Z,10.00
2022-11-02T17:45:59.463Z,11.13
2022-11-02T17:48:29.202Z,11.47
2022-11-02T17:50:57.511Z,13.50
2022-11-02T17:53:24.801Z,13.03
2022-11-02T17:55:52.126Z,11.93
2022-11-02T17:58:19.223Z,12.07
2022-11-02T18:00:46.501Z,13.10
2022-11-02T18:03:17.323Z,13.97
2022-11-02T18:05:48.335Z,12.07
2022-11-02T18:08:17.721Z,13.43
2022-11-02T18:10:46.492Z,13.00
2022-11-02T18:13:15.345Z,11.00
2022-11-02T18:15:42.941Z,13.03
2022-11-02T18:18:11.912Z,11.80
2022-11-02T18:20:41.975Z,12.23
2022-11-02T18:23:16.769Z,13.27
2022-11-02T18:25:43.992Z,13.65
2022-11-02T18:28:14.422Z,12.43
2022-11-02T18:30:44.418Z,11.13
2022-11-02T18:33:14.088Z,10.17
2022-11-02T18:35:42.977Z,11.70
2022-11-02T18:38:13.407Z,11.00
2022-11-02T18:40:40.891Z,12.17
2022-11-02T18:43:08.488Z,11.03
2022-11-02T18:45:35.882Z,10.67
2022-11-02T18:48:03.349Z,14.03
2022-11-02T18:50:30.569Z,12.87
2022-11-02T18:52:57.612Z,14.40
2022-11-02T18:55:24.699Z,12.80
2022-11-02T18:57:51.718Z,9.83
2022-11-02T19:00:19.027Z,10.20
2022-11-02T19:02:46.017Z,10.60
2022-11-02T19:05:33.071Z,7.90
2022-11-02T19:08:20.257Z,8.37
2022-11-02T19:10:48.334Z,9.37
2022-11-02T19:13:15.336Z,7.20
2022-11-02T19:15:43.094Z,8.90
2022-11-02T19:18:11.668Z,6.53
2022-11-02T19:20:39.216Z,8.60
2022-11-02T19:23:06.967Z,8.93
2022-11-02T19:25:36.223Z,9.00
2022-11-02T19:28:04.713Z,9.53
2022-11-02T19:30:32.090Z,8.53
2022-11-02T19:32:59.152Z,8.57
2022-11-02T19:35:26.189Z,8.03
2022-11-02T19:37:57.682Z,9.37
2022-11-02T19:40:24.810Z,9.40
2022-11-02T19:42:51.904Z,9.60
2022-11-02T19:45:19.026Z,10.10
2022-11-02T19:47:46.098Z,9.20
2022-11-02T19:50:13.253Z,9.73
2022-11-02T19:52:42.241Z,13.23
2022-11-02T19:55:09.722Z,13.87
2022-11-02T19:57:37.254Z,14.17
2022-11-02T20:00:04.665Z,19.93
2022-11-02T20:02:31.725Z,17.97
2022-11-02T20:04:58.777Z,15.40
2022-11-02T20:07:25.780Z,10.23
2022-11-02T20:09:54.624Z,10.43
2022-11-02T20:12:24.374Z,9.87
2022-11-02T20:14:51.391Z,9.83
2022-11-02T20:17:31.104Z,8.63
2022-11-02T20:20:00.162Z,7.53
2022-11-02T20:22:27.170Z,9.77
2022-11-02T20:24:54.166Z,9.50
2022-11-02T20:27:21.266Z,9.60
2022-11-02T20:29:48.350Z,8.07
2022-11-02T20:32:50.003Z,7.43
2022-11-02T20:35:22.217Z,7.70
2022-11-02T20:37:49.302Z,7.83
2022-11-02T20:40:16.775Z,7.90
2022-11-02T20:42:43.822Z,7.70
2022-11-02T20:45:11.069Z,8.20
2022-11-02T20:47:39.401Z,6.97
2022-11-02T20:50:10.179Z,8.37
2022-11-02T20:52:39.878Z,6.33
2022-11-02T20:55:09.611Z,6.50
2022-11-02T20:57:37.894Z,7.33
2022-11-02T21:00:06.297Z,6.20
2022-11-02T21:02:33.585Z,8.07
2022-11-02T21:05:04.061Z,6.47
2022-11-02T21:07:31.005Z,7.10
2022-11-02T21:09:58.167Z,5.57
2022-11-02T21:12:45.068Z,5.57
2022-11-02T21:15:12.106Z,5.93
2022-11-02T21:17:40.520Z,5.10
2022-11-02T21:22:58.864Z,6.87
2022-11-02T21:25:25.952Z,4.70
2022-11-02T21:27:53.018Z,5.50
2022-11-02T21:30:20.126Z,8.30
2022-11-02T21:32:49.715Z,10.70
2022-11-02T21:35:16.825Z,7.33
2022-11-02T21:37:43.880Z,4.77
2022-11-02T21:40:11.734Z,5.43
2022-11-02T21:42:41.698Z,6.77
2022-11-02T21:45:09.385Z,7.80
2022-11-02T21:47:36.353Z,7.17
2022-11-02T21:50:08.262Z,5.13
2022-11-02T21:52:37.849Z,4.20
2022-11-02T21:55:08.235Z,3.80
2022-11-02T21:57:35.601Z,5.60
2022-11-02T22:00:02.851Z,3.67
2022-11-02T22:03:13.785Z,3.70
2022-11-02T22:05:55.410Z,4.60
2022-11-02T22:08:42.269Z,3.43
2022-11-02T22:11:13.180Z,4.03
2022-11-02T22:13:41.917Z,4.00
2022-11-02T22:16:12.711Z,4.00
2022-11-02T22:18:39.795Z,4.23
2022-11-02T22:21:07.188Z,4.20
2022-11-02T22:23:34.649Z,4.73
2022-11-02T22:26:06.319Z,4.50
2022-11-02T22:28:39.126Z,4.20
2022-11-02T22:31:12.504Z,4.10
2022-11-02T22:33:41.987Z,3.80
2022-11-02T22:36:10.708Z,4.53
2022-11-02T22:38:54.189Z,4.67
2022-11-02T22:42:01.179Z,5.00
2022-11-02T22:44:28.170Z,3.60
2022-11-02T22:46:55.218Z,3.77
2022-11-02T22:49:22.277Z,3.70
2022-11-02T22:51:50.594Z,3.77
2022-11-02T22:54:19.594Z,4.60
2022-11-02T22:56:48.389Z,3.93
2022-11-02T22:59:16.010Z,4.30
2022-11-02T23:01:43.440Z,4.20
2022-11-02T23:04:11.799Z,3.67
2022-11-02T23:06:39.242Z,4.00
2022-11-02T23:09:06.322Z,4.77
2022-11-02T23:11:36.760Z,4.20
2022-11-02T23:14:23.736Z,3.20
2022-11-02T23:16:50.711Z,3.43
2022-11-02T23:19:27.068Z,3.90
2022-11-02T23:22:35.313Z,2.70
2022-11-02T23:25:11.413Z,3.10
2022-11-02T23:28:01.256Z,3.10
2022-11-02T23:30:51.862Z,3.07
2022-11-02T23:33:19.302Z,3.30
2022-11-02T23:36:06.438Z,2.93
2022-11-02T23:38:53.726Z,3.10
2022-11-02T23:41:21.614Z,2.90
2022-11-02T23:43:48.849Z,2.50
2022-11-02T23:46:15.901Z,2.70
2022-11-02T23:48:44.908Z,2.53
2022-11-02T23:51:36.020Z,3.00
2022-11-02T23:54:22.859Z,3.47
2022-11-02T23:56:50.211Z,2.67
2022-11-02T23:59:18.412Z,2.60
